Sturtevant, WI (53177)

11:04 AM CST on November 28, 2014 (GMT -0600)
APRSWXNET Somers WI US | Change Station
CLOSE
Current Station
Personal Weather Station
Location: Somers, WI
Elevation: 731 ft
Nearby Weather Stations

Elev 731 ft 42.64 °N, 87.92 °W | Updated 31 minutes ago

Overcast
Overcast
22 °F
Feels Like 22 °F
N
3
Wind Variable Wind from SSW
Gusts 9.0 mph

Today
High -- | Low -- °F
--% Chance of Precip.
Yesterday
High -- | Low -- °F
Precip. -- in
6:58 AM 4:20 PM
Waxing Crescent, 42% visible
Pressure 30.19 in
Visibility 10.0 miles
Clouds Overcast 7500 ft
Windchill 22 °F
Dew Point 16 °F
Humidity 77%
Rainfall 0.00 in
Snow Depth Not available.
UV 1 out of 12
Pollen .10 out of 12
Air Quality Not available.
Flu Activity Not available.
METAR KENW 281653Z 17009KT 10SM OVC075 M05/M10 A3014 RMK AO2 SNB04E19 SLP223 P0000 T10501100

More Conditions Fewer Conditions

Pressure 30.19 in
Visibility 10.0 miles
Clouds Overcast 7500 ft
Windchill 22 °F
Dew Point 16 °F
Humidity 77%
Rainfall 0.00 in
Snow Depth Not available.
UV 1 out of 12
Pollen .10 out of 12
Air Quality Not available.
Flu Activity Not available.
METAR KENW 281653Z 17009KT 10SM OVC075 M05/M10 A3014 RMK AO2 SNB04E19 SLP223 P0000 T10501100

More Conditions Fewer Conditions

10-Day Weather Forecast

Almanac

Astronomy

Nov. 28, 2014 Rise Set
Actual Time
Civil Twilight
Nautical Twilight
Astronomical Twilight
Moon
Length of Visible Light
Length of Day
Tomorrow will be .
, % of the Moon is Illuminated

Today's Extremes

State Highs State Lows

Community

WunderPhotos

Upload Photos

1,774,238 photos uploaded!

WunderBlogs® & News

Nearby

Air Quality

  Air Quality AQ Index Pollutant
Not available.

Snow Depth

Station Depth Elevation

Earthquake Activity

City Distance Mag. Time & Date
Minimum magnitude displayed is 2.5.

Coastal Water Temperatures

Place Temperature

Nearby Weather Stations